sensor_id;sensor_type;location;lat;lon;timestamp;temperature;humidity
37050;DHT22;22958;51.232;6.826;2023-03-25T00:01:28;9.60;99.90
37050;DHT22;22958;51.232;6.826;2023-03-25T00:03:54;9.60;99.90
37050;DHT22;22958;51.232;6.826;2023-03-25T00:06:19;9.70;99.90
37050;DHT22;22958;51.232;6.826;2023-03-25T00:08:45;9.60;99.90
37050;DHT22;22958;51.232;6.826;2023-03-25T00:11:11;9.60;99.90
37050;DHT22;22958;51.232;6.826;2023-03-25T00:13:36;9.70;99.90
37050;DHT22;22958;51.232;6.826;2023-03-25T00:16:03;9.70;99.90
37050;DHT22;22958;51.232;6.826;2023-03-25T00:18:31;9.70;99.90
37050;DHT22;22958;51.232;6.826;2023-03-25T00:21:02;9.70;99.90
37050;DHT22;22958;51.232;6.826;2023-03-25T00:23:29;9.70;99.90
37050;DHT22;22958;51.232;6.826;2023-03-25T00:25:55;9.70;99.90
37050;DHT22;22958;51.232;6.826;2023-03-25T00:28:26;9.70;99.90
37050;DHT22;22958;51.232;6.826;2023-03-25T00:30:53;9.70;99.90
37050;DHT22;22958;51.232;6.826;2023-03-25T00:33:18;9.80;99.90
37050;DHT22;22958;51.232;6.826;2023-03-25T00:35:51;9.80;99.90
37050;DHT22;22958;51.232;6.826;2023-03-25T00:38:17;9.80;99.90
37050;DHT22;22958;51.232;6.826;2023-03-25T00:40:42;9.80;99.90
37050;DHT22;22958;51.232;6.826;2023-03-25T00:43:11;9.80;99.90
37050;DHT22;22958;51.232;6.826;2023-03-25T00:45:36;9.80;99.90
37050;DHT22;22958;51.232;6.826;2023-03-25T00:48:02;9.80;99.90
37050;DHT22;22958;51.232;6.826;2023-03-25T00:50:28;9.80;99.90
37050;DHT22;22958;51.232;6.826;2023-03-25T00:52:53;9.90;99.90
37050;DHT22;22958;51.232;6.826;2023-03-25T00:55:19;9.90;99.90
37050;DHT22;22958;51.232;6.826;2023-03-25T00:57:45;9.90;99.90
37050;DHT22;22958;51.232;6.826;2023-03-25T01:00:13;9.90;99.90
37050;DHT22;22958;51.232;6.826;2023-03-25T01:02:40;9.90;99.90
37050;DHT22;22958;51.232;6.826;2023-03-25T01:05:07;9.90;99.90
37050;DHT22;22958;51.232;6.826;2023-03-25T01:07:33;9.90;99.90
37050;DHT22;22958;51.232;6.826;2023-03-25T01:10:00;9.90;99.90
37050;DHT22;22958;51.232;6.826;2023-03-25T01:12:26;9.90;99.90
37050;DHT22;22958;51.232;6.826;2023-03-25T01:14:54;9.90;99.90
37050;DHT22;22958;51.232;6.826;2023-03-25T01:17:19;9.90;99.90
37050;DHT22;22958;51.232;6.826;2023-03-25T01:19:45;9.90;99.90
37050;DHT22;22958;51.232;6.826;2023-03-25T01:22:11;10.00;99.90
37050;DHT22;22958;51.232;6.826;2023-03-25T01:24:37;10.00;99.90
37050;DHT22;22958;51.232;6.826;2023-03-25T01:27:03;10.00;99.90
37050;DHT22;22958;51.232;6.826;2023-03-25T01:29:29;10.00;99.90
37050;DHT22;22958;51.232;6.826;2023-03-25T01:31:55;10.00;99.90
37050;DHT22;22958;51.232;6.826;2023-03-25T01:34:20;10.00;99.90
37050;DHT22;22958;51.232;6.826;2023-03-25T01:36:47;10.00;99.90
37050;DHT22;22958;51.232;6.826;2023-03-25T01:39:14;10.10;99.90
37050;DHT22;22958;51.232;6.826;2023-03-25T01:41:46;10.00;99.90
37050;DHT22;22958;51.232;6.826;2023-03-25T01:46:47;10.00;99.90
37050;DHT22;22958;51.232;6.826;2023-03-25T01:49:22;10.00;99.90
37050;DHT22;22958;51.232;6.826;2023-03-25T01:51:52;10.00;99.90
37050;DHT22;22958;51.232;6.826;2023-03-25T01:54:18;10.00;99.90
37050;DHT22;22958;51.232;6.826;2023-03-25T01:56:46;10.00;99.90
37050;DHT22;22958;51.232;6.826;2023-03-25T01:59:15;10.00;99.90
37050;DHT22;22958;51.232;6.826;2023-03-25T02:01:42;10.00;99.90
37050;DHT22;22958;51.232;6.826;2023-03-25T02:04:10;10.00;99.90
37050;DHT22;22958;51.232;6.826;2023-03-25T02:06:48;10.00;99.90
37050;DHT22;22958;51.232;6.826;2023-03-25T02:09:23;9.90;99.90
37050;DHT22;22958;51.232;6.826;2023-03-25T02:11:49;9.90;99.90
37050;DHT22;22958;51.232;6.826;2023-03-25T02:14:24;9.90;99.90
37050;DHT22;22958;51.232;6.826;2023-03-25T02:17:13;9.90;99.90
37050;DHT22;22958;51.232;6.826;2023-03-25T02:23:07;9.80;99.90
37050;DHT22;22958;51.232;6.826;2023-03-25T02:26:20;9.80;99.90
37050;DHT22;22958;51.232;6.826;2023-03-25T02:28:44;9.80;99.90
37050;DHT22;22958;51.232;6.826;2023-03-25T02:31:42;9.80;99.90
37050;DHT22;22958;51.232;6.826;2023-03-25T02:34:29;9.80;99.90
37050;DHT22;22958;51.232;6.826;2023-03-25T02:37:15;9.80;99.90
37050;DHT22;22958;51.232;6.826;2023-03-25T02:40:11;9.80;99.90
37050;DHT22;22958;51.232;6.826;2023-03-25T02:43:28;9.80;99.90
37050;DHT22;22958;51.232;6.826;2023-03-25T02:45:53;9.70;99.90
37050;DHT22;22958;51.232;6.826;2023-03-25T02:48:48;9.70;99.90
37050;DHT22;22958;51.232;6.826;2023-03-25T02:51:21;9.70;99.90
37050;DHT22;22958;51.232;6.826;2023-03-25T02:53:49;9.60;99.90
37050;DHT22;22958;51.232;6.826;2023-03-25T02:56:17;9.60;99.90
37050;DHT22;22958;51.232;6.826;2023-03-25T02:58:47;9.70;99.90
37050;DHT22;22958;51.232;6.826;2023-03-25T03:01:14;9.60;99.90
37050;DHT22;22958;51.232;6.826;2023-03-25T03:03:40;9.60;99.90
37050;DHT22;22958;51.232;6.826;2023-03-25T03:06:06;9.60;99.90
37050;DHT22;22958;51.232;6.826;2023-03-25T03:14:59;9.60;99.90
37050;DHT22;22958;51.232;6.826;2023-03-25T03:18:02;9.60;99.90
37050;DHT22;22958;51.232;6.826;2023-03-25T03:20:57;9.60;99.90
37050;DHT22;22958;51.232;6.826;2023-03-25T03:23:28;9.60;99.90
37050;DHT22;22958;51.232;6.826;2023-03-25T03:26:09;9.60;99.90
37050;DHT22;22958;51.232;6.826;2023-03-25T03:28:45;9.50;99.90
37050;DHT22;22958;51.232;6.826;2023-03-25T03:31:23;9.60;99.90
37050;DHT22;22958;51.232;6.826;2023-03-25T03:33:56;9.60;99.90
37050;DHT22;22958;51.232;6.826;2023-03-25T03:36:30;9.60;99.90
37050;DHT22;22958;51.232;6.826;2023-03-25T03:39:00;9.60;99.90
37050;DHT22;22958;51.232;6.826;2023-03-25T03:41:30;9.60;99.90
37050;DHT22;22958;51.232;6.826;2023-03-25T03:44:00;9.60;99.90
37050;DHT22;22958;51.232;6.826;2023-03-25T03:46:51;9.60;99.90
37050;DHT22;22958;51.232;6.826;2023-03-25T03:49:21;9.60;99.90
37050;DHT22;22958;51.232;6.826;2023-03-25T03:51:58;9.60;99.90
37050;DHT22;22958;51.232;6.826;2023-03-25T03:54:30;9.60;99.90
37050;DHT22;22958;51.232;6.826;2023-03-25T03:57:02;9.60;99.90
37050;DHT22;22958;51.232;6.826;2023-03-25T03:59:44;9.60;99.90
37050;DHT22;22958;51.232;6.826;2023-03-25T04:02:27;9.40;99.90
37050;DHT22;22958;51.232;6.826;2023-03-25T04:04:57;9.30;99.90
37050;DHT22;22958;51.232;6.826;2023-03-25T04:10:26;9.30;99.90
37050;DHT22;22958;51.232;6.826;2023-03-25T04:12:59;9.40;99.90
37050;DHT22;22958;51.232;6.826;2023-03-25T04:15:26;9.40;99.90
37050;DHT22;22958;51.232;6.826;2023-03-25T04:17:52;9.40;99.90
37050;DHT22;22958;51.232;6.826;2023-03-25T04:20:22;9.40;99.90
37050;DHT22;22958;51.232;6.826;2023-03-25T04:22:50;9.40;99.90
37050;DHT22;22958;51.232;6.826;2023-03-25T04:25:17;9.50;99.90
37050;DHT22;22958;51.232;6.826;2023-03-25T04:27:42;9.50;99.90
37050;DHT22;22958;51.232;6.826;2023-03-25T04:30:14;9.50;99.90
37050;DHT22;22958;51.232;6.826;2023-03-25T04:32:42;9.50;99.90
37050;DHT22;22958;51.232;6.826;2023-03-25T04:35:10;9.50;99.90
37050;DHT22;22958;51.232;6.826;2023-03-25T04:37:36;9.60;99.90
37050;DHT22;22958;51.232;6.826;2023-03-25T04:40:03;9.60;99.90
37050;DHT22;22958;51.232;6.826;2023-03-25T04:42:31;9.60;99.90
37050;DHT22;22958;51.232;6.826;2023-03-25T04:45:05;9.60;99.90
37050;DHT22;22958;51.232;6.826;2023-03-25T04:47:31;9.70;99.90
37050;DHT22;22958;51.232;6.826;2023-03-25T04:49:57;9.70;99.90
37050;DHT22;22958;51.232;6.826;2023-03-25T04:52:22;9.70;99.90
37050;DHT22;22958;51.232;6.826;2023-03-25T04:54:48;9.70;99.90
37050;DHT22;22958;51.232;6.826;2023-03-25T04:57:13;9.70;99.90
37050;DHT22;22958;51.232;6.826;2023-03-25T04:59:39;9.80;99.90
37050;DHT22;22958;51.232;6.826;2023-03-25T05:02:06;9.80;99.90
37050;DHT22;22958;51.232;6.826;2023-03-25T05:04:32;9.80;99.90
37050;DHT22;22958;51.232;6.826;2023-03-25T05:06:58;9.70;99.90
37050;DHT22;22958;51.232;6.826;2023-03-25T05:09:23;9.80;99.90
37050;DHT22;22958;51.232;6.826;2023-03-25T05:11:52;9.60;99.90
37050;DHT22;22958;51.232;6.826;2023-03-25T05:14:19;9.50;99.90
37050;DHT22;22958;51.232;6.826;2023-03-25T05:16:46;9.40;99.90
37050;DHT22;22958;51.232;6.826;2023-03-25T05:19:12;9.30;99.90
37050;DHT22;22958;51.232;6.826;2023-03-25T05:21:39;9.20;99.90
37050;DHT22;22958;51.232;6.826;2023-03-25T05:24:09;9.30;99.90
37050;DHT22;22958;51.232;6.826;2023-03-25T05:26:36;9.30;99.90
37050;DHT22;22958;51.232;6.826;2023-03-25T05:29:07;9.40;99.90
37050;DHT22;22958;51.232;6.826;2023-03-25T05:31:34;9.40;99.90
37050;DHT22;22958;51.232;6.826;2023-03-25T05:34:00;9.30;99.90
37050;DHT22;22958;51.232;6.826;2023-03-25T05:36:25;9.30;99.90
37050;DHT22;22958;51.232;6.826;2023-03-25T05:38:54;9.30;99.90
37050;DHT22;22958;51.232;6.826;2023-03-25T05:41:21;9.30;99.90
37050;DHT22;22958;51.232;6.826;2023-03-25T05:43:47;9.30;99.90
37050;DHT22;22958;51.232;6.826;2023-03-25T05:46:16;9.30;99.90
37050;DHT22;22958;51.232;6.826;2023-03-25T05:48:44;9.40;99.90
37050;DHT22;22958;51.232;6.826;2023-03-25T05:51:15;9.40;99.90
37050;DHT22;22958;51.232;6.826;2023-03-25T05:53:42;9.50;99.90
37050;DHT22;22958;51.232;6.826;2023-03-25T05:56:09;9.50;99.90
37050;DHT22;22958;51.232;6.826;2023-03-25T05:58:35;9.50;99.90
37050;DHT22;22958;51.232;6.826;2023-03-25T06:01:01;9.50;99.90
37050;DHT22;22958;51.232;6.826;2023-03-25T06:03:30;9.50;99.90
37050;DHT22;22958;51.232;6.826;2023-03-25T06:05:58;9.60;99.90
37050;DHT22;22958;51.232;6.826;2023-03-25T06:08:24;9.60;99.90
37050;DHT22;22958;51.232;6.826;2023-03-25T06:10:54;9.60;99.90
37050;DHT22;22958;51.232;6.826;2023-03-25T06:13:23;9.60;99.90
37050;DHT22;22958;51.232;6.826;2023-03-25T06:15:48;9.60;99.90
37050;DHT22;22958;51.232;6.826;2023-03-25T06:18:23;9.50;99.90
37050;DHT22;22958;51.232;6.826;2023-03-25T06:20:50;9.30;99.90
37050;DHT22;22958;51.232;6.826;2023-03-25T06:23:16;9.20;99.90
37050;DHT22;22958;51.232;6.826;2023-03-25T06:25:42;9.10;99.90
37050;DHT22;22958;51.232;6.826;2023-03-25T06:28:07;9.10;99.90
37050;DHT22;22958;51.232;6.826;2023-03-25T06:30:32;9.00;99.90
37050;DHT22;22958;51.232;6.826;2023-03-25T06:32:58;9.00;99.90
37050;DHT22;22958;51.232;6.826;2023-03-25T06:35:27;8.80;99.90
37050;DHT22;22958;51.232;6.826;2023-03-25T06:37:52;8.70;99.90
37050;DHT22;22958;51.232;6.826;2023-03-25T06:40:18;8.60;99.90
37050;DHT22;22958;51.232;6.826;2023-03-25T06:42:44;8.50;99.90
37050;DHT22;22958;51.232;6.826;2023-03-25T06:45:10;8.40;99.90
37050;DHT22;22958;51.232;6.826;2023-03-25T06:47:37;8.40;99.90
37050;DHT22;22958;51.232;6.826;2023-03-25T06:50:03;8.40;99.90
37050;DHT22;22958;51.232;6.826;2023-03-25T06:52:28;8.40;99.90
37050;DHT22;22958;51.232;6.826;2023-03-25T06:54:54;8.40;99.90
37050;DHT22;22958;51.232;6.826;2023-03-25T06:57:19;8.40;99.90
37050;DHT22;22958;51.232;6.826;2023-03-25T06:59:45;8.40;99.90
37050;DHT22;22958;51.232;6.826;2023-03-25T07:02:12;8.50;99.90
37050;DHT22;22958;51.232;6.826;2023-03-25T07:04:39;8.50;99.90
37050;DHT22;22958;51.232;6.826;2023-03-25T07:07:04;8.60;99.90
37050;DHT22;22958;51.232;6.826;2023-03-25T07:09:30;8.60;99.90
37050;DHT22;22958;51.232;6.826;2023-03-25T07:11:56;8.70;99.90
37050;DHT22;22958;51.232;6.826;2023-03-25T07:14:21;8.80;99.90
37050;DHT22;22958;51.232;6.826;2023-03-25T07:16:47;8.90;99.90
37050;DHT22;22958;51.232;6.826;2023-03-25T07:19:12;9.00;99.90
37050;DHT22;22958;51.232;6.826;2023-03-25T07:21:38;9.00;99.90
37050;DHT22;22958;51.232;6.826;2023-03-25T07:24:03;9.10;99.90
37050;DHT22;22958;51.232;6.826;2023-03-25T07:26:29;9.20;99.90
37050;DHT22;22958;51.232;6.826;2023-03-25T07:28:54;9.20;99.90
37050;DHT22;22958;51.232;6.826;2023-03-25T07:31:20;9.30;99.90
37050;DHT22;22958;51.232;6.826;2023-03-25T07:33:46;9.40;99.90
37050;DHT22;22958;51.232;6.826;2023-03-25T07:36:12;9.40;99.90
37050;DHT22;22958;51.232;6.826;2023-03-25T07:38:38;9.40;99.90
37050;DHT22;22958;51.232;6.826;2023-03-25T07:41:09;9.50;99.90
37050;DHT22;22958;51.232;6.826;2023-03-25T07:43:36;9.50;99.90
37050;DHT22;22958;51.232;6.826;2023-03-25T07:46:01;9.50;99.90
37050;DHT22;22958;51.232;6.826;2023-03-25T07:48:27;9.50;99.90
37050;DHT22;22958;51.232;6.826;2023-03-25T07:50:52;9.50;99.90
37050;DHT22;22958;51.232;6.826;2023-03-25T07:53:18;9.50;99.90
37050;DHT22;22958;51.232;6.826;2023-03-25T07:55:44;9.60;99.90
37050;DHT22;22958;51.232;6.826;2023-03-25T07:58:15;9.60;99.90
37050;DHT22;22958;51.232;6.826;2023-03-25T08:00:41;9.70;99.90
37050;DHT22;22958;51.232;6.826;2023-03-25T08:03:07;9.70;99.90
37050;DHT22;22958;51.232;6.826;2023-03-25T08:05:34;9.70;99.90
37050;DHT22;22958;51.232;6.826;2023-03-25T08:08:00;9.60;99.90
37050;DHT22;22958;51.232;6.826;2023-03-25T08:10:26;9.70;99.90
37050;DHT22;22958;51.232;6.826;2023-03-25T08:12:52;9.70;99.90
37050;DHT22;22958;51.232;6.826;2023-03-25T08:15:18;9.70;99.90
37050;DHT22;22958;51.232;6.826;2023-03-25T08:17:45;9.80;99.90
37050;DHT22;22958;51.232;6.826;2023-03-25T08:20:10;9.80;99.90
37050;DHT22;22958;51.232;6.826;2023-03-25T08:22:36;9.90;99.90
37050;DHT22;22958;51.232;6.826;2023-03-25T08:25:02;9.90;99.90
37050;DHT22;22958;51.232;6.826;2023-03-25T08:27:27;10.00;99.90
37050;DHT22;22958;51.232;6.826;2023-03-25T08:29:53;10.10;99.90
37050;DHT22;22958;51.232;6.826;2023-03-25T08:32:20;10.10;99.90
37050;DHT22;22958;51.232;6.826;2023-03-25T08:34:46;10.10;99.90
37050;DHT22;22958;51.232;6.826;2023-03-25T08:37:12;10.10;99.90
37050;DHT22;22958;51.232;6.826;2023-03-25T08:39:39;10.10;99.90
37050;DHT22;22958;51.232;6.826;2023-03-25T08:42:06;10.20;99.90
37050;DHT22;22958;51.232;6.826;2023-03-25T08:44:33;10.20;99.90
37050;DHT22;22958;51.232;6.826;2023-03-25T08:46:58;10.20;99.90
37050;DHT22;22958;51.232;6.826;2023-03-25T08:49:24;10.20;99.90
37050;DHT22;22958;51.232;6.826;2023-03-25T08:51:50;10.20;99.90
37050;DHT22;22958;51.232;6.826;2023-03-25T08:54:15;10.20;99.90
37050;DHT22;22958;51.232;6.826;2023-03-25T08:56:41;10.20;99.90
37050;DHT22;22958;51.232;6.826;2023-03-25T08:59:07;10.40;99.90
37050;DHT22;22958;51.232;6.826;2023-03-25T09:01:32;10.50;99.90
37050;DHT22;22958;51.232;6.826;2023-03-25T09:03:58;10.50;99.90
37050;DHT22;22958;51.232;6.826;2023-03-25T09:06:23;10.60;99.90
37050;DHT22;22958;51.232;6.826;2023-03-25T09:08:49;10.70;99.90
37050;DHT22;22958;51.232;6.826;2023-03-25T09:11:14;10.70;99.90
37050;DHT22;22958;51.232;6.826;2023-03-25T09:13:41;10.70;99.90
37050;DHT22;22958;51.232;6.826;2023-03-25T09:16:07;10.60;99.90
37050;DHT22;22958;51.232;6.826;2023-03-25T09:18:33;10.60;99.90
37050;DHT22;22958;51.232;6.826;2023-03-25T09:21:02;10.60;99.90
37050;DHT22;22958;51.232;6.826;2023-03-25T09:23:28;10.60;99.90
37050;DHT22;22958;51.232;6.826;2023-03-25T09:25:55;10.60;99.90
37050;DHT22;22958;51.232;6.826;2023-03-25T09:28:23;10.70;99.90
37050;DHT22;22958;51.232;6.826;2023-03-25T09:30:49;10.80;99.90
37050;DHT22;22958;51.232;6.826;2023-03-25T09:33:14;10.80;99.90
37050;DHT22;22958;51.232;6.826;2023-03-25T09:35:40;10.80;99.90
37050;DHT22;22958;51.232;6.826;2023-03-25T09:38:06;10.80;99.90
37050;DHT22;22958;51.232;6.826;2023-03-25T09:40:33;10.90;99.90
37050;DHT22;22958;51.232;6.826;2023-03-25T09:45:58;10.90;99.90
37050;DHT22;22958;51.232;6.826;2023-03-25T09:48:29;10.90;99.90
37050;DHT22;22958;51.232;6.826;2023-03-25T09:51:05;11.00;99.90
37050;DHT22;22958;51.232;6.826;2023-03-25T09:56:06;10.90;99.90
37050;DHT22;22958;51.232;6.826;2023-03-25T09:58:41;10.90;99.90
37050;DHT22;22958;51.232;6.826;2023-03-25T10:01:30;11.00;99.90
37050;DHT22;22958;51.232;6.826;2023-03-25T10:04:24;11.00;99.90
37050;DHT22;22958;51.232;6.826;2023-03-25T10:10:04;11.20;99.90
37050;DHT22;22958;51.232;6.826;2023-03-25T10:12:34;11.10;99.90
37050;DHT22;22958;51.232;6.826;2023-03-25T10:15:25;11.20;99.90
37050;DHT22;22958;51.232;6.826;2023-03-25T10:18:07;11.30;99.90
37050;DHT22;22958;51.232;6.826;2023-03-25T10:21:12;11.30;99.90
37050;DHT22;22958;51.232;6.826;2023-03-25T10:23:52;11.30;99.90
37050;DHT22;22958;51.232;6.826;2023-03-25T10:26:26;11.40;99.90
37050;DHT22;22958;51.232;6.826;2023-03-25T10:29:02;11.60;99.90
37050;DHT22;22958;51.232;6.826;2023-03-25T10:31:34;11.80;99.90
37050;DHT22;22958;51.232;6.826;2023-03-25T10:34:05;11.90;99.90
37050;DHT22;22958;51.232;6.826;2023-03-25T10:36:43;11.90;99.90
37050;DHT22;22958;51.232;6.826;2023-03-25T10:39:18;11.80;99.90
37050;DHT22;22958;51.232;6.826;2023-03-25T10:41:56;11.50;99.90
37050;DHT22;22958;51.232;6.826;2023-03-25T10:44:25;11.30;99.90
37050;DHT22;22958;51.232;6.826;2023-03-25T10:46:57;11.30;99.90
37050;DHT22;22958;51.232;6.826;2023-03-25T10:49:27;11.40;99.90
37050;DHT22;22958;51.232;6.826;2023-03-25T10:51:54;11.50;99.90
37050;DHT22;22958;51.232;6.826;2023-03-25T10:54:32;11.50;99.90
37050;DHT22;22958;51.232;6.826;2023-03-25T10:57:02;11.60;99.90
37050;DHT22;22958;51.232;6.826;2023-03-25T10:59:48;11.90;99.90
37050;DHT22;22958;51.232;6.826;2023-03-25T11:02:20;11.90;99.90
37050;DHT22;22958;51.232;6.826;2023-03-25T11:04:55;11.50;99.90
37050;DHT22;22958;51.232;6.826;2023-03-25T11:07:34;11.30;99.90
37050;DHT22;22958;51.232;6.826;2023-03-25T11:12:41;11.50;99.90
37050;DHT22;22958;51.232;6.826;2023-03-25T11:15:20;11.50;99.90
37050;DHT22;22958;51.232;6.826;2023-03-25T11:17:47;11.80;99.90
37050;DHT22;22958;51.232;6.826;2023-03-25T11:20:20;11.90;99.90
37050;DHT22;22958;51.232;6.826;2023-03-25T11:22:52;11.60;99.90
37050;DHT22;22958;51.232;6.826;2023-03-25T11:25:28;11.30;99.90
37050;DHT22;22958;51.232;6.826;2023-03-25T11:28:01;11.30;99.90
37050;DHT22;22958;51.232;6.826;2023-03-25T11:30:27;11.20;99.90
37050;DHT22;22958;51.232;6.826;2023-03-25T11:33:05;10.90;99.90
37050;DHT22;22958;51.232;6.826;2023-03-25T11:35:36;10.90;99.90
37050;DHT22;22958;51.232;6.826;2023-03-25T11:38:19;10.90;99.90
37050;DHT22;22958;51.232;6.826;2023-03-25T11:40:56;10.90;99.90
37050;DHT22;22958;51.232;6.826;2023-03-25T11:43:25;10.50;99.90
37050;DHT22;22958;51.232;6.826;2023-03-25T11:45:53;10.30;99.90
37050;DHT22;22958;51.232;6.826;2023-03-25T11:48:21;10.30;99.90
37050;DHT22;22958;51.232;6.826;2023-03-25T11:50:53;10.60;99.90
37050;DHT22;22958;51.232;6.826;2023-03-25T11:53:20;11.00;99.90
37050;DHT22;22958;51.232;6.826;2023-03-25T11:55:48;11.40;99.90
37050;DHT22;22958;51.232;6.826;2023-03-25T11:58:15;11.40;99.90
37050;DHT22;22958;51.232;6.826;2023-03-25T12:00:49;11.00;99.90
37050;DHT22;22958;51.232;6.826;2023-03-25T12:03:19;10.90;99.90
37050;DHT22;22958;51.232;6.826;2023-03-25T12:06:06;10.70;99.90
37050;DHT22;22958;51.232;6.826;2023-03-25T12:08:52;10.20;99.90
37050;DHT22;22958;51.232;6.826;2023-03-25T12:11:43;10.00;99.90
37050;DHT22;22958;51.232;6.826;2023-03-25T12:14:54;10.10;99.90
37050;DHT22;22958;51.232;6.826;2023-03-25T12:20:07;10.30;99.90
37050;DHT22;22958;51.232;6.826;2023-03-25T12:28:59;11.20;99.90
37050;DHT22;22958;51.232;6.826;2023-03-25T12:34:44;11.70;99.90
37050;DHT22;22958;51.232;6.826;2023-03-25T12:37:35;13.00;99.90
37050;DHT22;22958;51.232;6.826;2023-03-25T12:40:44;13.70;99.90
37050;DHT22;22958;51.232;6.826;2023-03-25T12:43:31;13.40;99.90
37050;DHT22;22958;51.232;6.826;2023-03-25T13:00:42;14.60;99.90
37050;DHT22;22958;51.232;6.826;2023-03-25T13:03:34;13.30;99.90
37050;DHT22;22958;51.232;6.826;2023-03-25T13:11:26;10.50;99.90
37050;DHT22;22958;51.232;6.826;2023-03-25T13:13:54;10.10;99.90
37050;DHT22;22958;51.232;6.826;2023-03-25T13:16:24;10.00;99.90
37050;DHT22;22958;51.232;6.826;2023-03-25T13:19:15;9.90;99.90
37050;DHT22;22958;51.232;6.826;2023-03-25T13:21:57;10.00;99.90
37050;DHT22;22958;51.232;6.826;2023-03-25T13:24:46;9.90;99.90
37050;DHT22;22958;51.232;6.826;2023-03-25T13:27:14;9.70;99.90
37050;DHT22;22958;51.232;6.826;2023-03-25T13:29:46;9.30;99.90
37050;DHT22;22958;51.232;6.826;2023-03-25T13:32:33;9.20;99.90
37050;DHT22;22958;51.232;6.826;2023-03-25T13:35:18;8.80;99.90
37050;DHT22;22958;51.232;6.826;2023-03-25T13:37:49;8.70;99.90
37050;DHT22;22958;51.232;6.826;2023-03-25T13:40:45;8.70;99.90
37050;DHT22;22958;51.232;6.826;2023-03-25T13:46:08;9.00;99.90
37050;DHT22;22958;51.232;6.826;2023-03-25T13:51:32;9.80;99.90
37050;DHT22;22958;51.232;6.826;2023-03-25T13:54:00;11.70;99.90
37050;DHT22;22958;51.232;6.826;2023-03-25T14:10:11;14.30;99.90
37050;DHT22;22958;51.232;6.826;2023-03-25T14:12:51;14.10;99.90
37050;DHT22;22958;51.232;6.826;2023-03-25T14:15:24;13.10;99.90
37050;DHT22;22958;51.232;6.826;2023-03-25T14:17:51;12.10;99.90
37050;DHT22;22958;51.232;6.826;2023-03-25T14:20:25;11.50;99.90
37050;DHT22;22958;51.232;6.826;2023-03-25T14:23:05;11.10;99.90
37050;DHT22;22958;51.232;6.826;2023-03-25T14:25:37;11.00;99.90
37050;DHT22;22958;51.232;6.826;2023-03-25T14:28:04;11.00;99.90
37050;DHT22;22958;51.232;6.826;2023-03-25T14:30:32;10.90;99.90
37050;DHT22;22958;51.232;6.826;2023-03-25T14:32:58;11.10;99.90
37050;DHT22;22958;51.232;6.826;2023-03-25T14:48:51;11.50;99.90
37050;DHT22;22958;51.232;6.826;2023-03-25T14:54:00;11.20;99.90
37050;DHT22;22958;51.232;6.826;2023-03-25T14:56:35;10.90;99.90
37050;DHT22;22958;51.232;6.826;2023-03-25T14:59:08;10.80;99.90
37050;DHT22;22958;51.232;6.826;2023-03-25T15:01:36;10.80;99.90
37050;DHT22;22958;51.232;6.826;2023-03-25T15:04:12;10.80;99.90
37050;DHT22;22958;51.232;6.826;2023-03-25T15:06:39;10.70;99.90
37050;DHT22;22958;51.232;6.826;2023-03-25T15:09:07;10.70;99.90
37050;DHT22;22958;51.232;6.826;2023-03-25T15:11:36;10.60;99.90
37050;DHT22;22958;51.232;6.826;2023-03-25T15:14:26;10.50;99.90
37050;DHT22;22958;51.232;6.826;2023-03-25T15:19:17;10.20;99.90
37050;DHT22;22958;51.232;6.826;2023-03-25T15:24:38;9.80;99.90
37050;DHT22;22958;51.232;6.826;2023-03-25T15:33:11;8.90;99.90
37050;DHT22;22958;51.232;6.826;2023-03-25T15:38:51;8.90;99.90
37050;DHT22;22958;51.232;6.826;2023-03-25T15:47:22;9.50;99.90
37050;DHT22;22958;51.232;6.826;2023-03-25T15:50:10;9.70;99.90
37050;DHT22;22958;51.232;6.826;2023-03-25T15:55:38;9.90;99.90
37050;DHT22;22958;51.232;6.826;2023-03-25T15:58:10;9.90;99.90
37050;DHT22;22958;51.232;6.826;2023-03-25T16:00:42;10.00;99.90
37050;DHT22;22958;51.232;6.826;2023-03-25T16:03:14;10.00;99.90
37050;DHT22;22958;51.232;6.826;2023-03-25T16:05:46;10.00;99.90
37050;DHT22;22958;51.232;6.826;2023-03-25T16:10:53;10.00;99.90
37050;DHT22;22958;51.232;6.826;2023-03-25T16:13:21;9.90;99.90
37050;DHT22;22958;51.232;6.826;2023-03-25T16:15:53;9.90;99.90
37050;DHT22;22958;51.232;6.826;2023-03-25T16:18:20;9.90;99.90
37050;DHT22;22958;51.232;6.826;2023-03-25T16:20:53;10.00;99.90
37050;DHT22;22958;51.232;6.826;2023-03-25T16:23:21;10.00;99.90
37050;DHT22;22958;51.232;6.826;2023-03-25T16:25:47;10.10;99.90
37050;DHT22;22958;51.232;6.826;2023-03-25T16:28:16;10.10;99.90
37050;DHT22;22958;51.232;6.826;2023-03-25T16:30:47;10.20;99.90
37050;DHT22;22958;51.232;6.826;2023-03-25T16:33:15;10.20;99.90
37050;DHT22;22958;51.232;6.826;2023-03-25T16:35:59;10.30;99.90
37050;DHT22;22958;51.232;6.826;2023-03-25T16:38:25;10.40;99.90
37050;DHT22;22958;51.232;6.826;2023-03-25T16:41:01;10.50;99.90
37050;DHT22;22958;51.232;6.826;2023-03-25T16:43:29;10.60;99.90
37050;DHT22;22958;51.232;6.826;2023-03-25T16:46:05;10.60;99.90
37050;DHT22;22958;51.232;6.826;2023-03-25T16:51:10;10.70;99.90
37050;DHT22;22958;51.232;6.826;2023-03-25T16:53:37;10.60;99.90
37050;DHT22;22958;51.232;6.826;2023-03-25T16:58:36;10.10;99.90
37050;DHT22;22958;51.232;6.826;2023-03-25T17:01:08;9.90;99.90
37050;DHT22;22958;51.232;6.826;2023-03-25T17:03:40;9.70;99.90
37050;DHT22;22958;51.232;6.826;2023-03-25T17:06:22;9.60;99.90
37050;DHT22;22958;51.232;6.826;2023-03-25T17:08:55;9.50;99.90
37050;DHT22;22958;51.232;6.826;2023-03-25T17:11:25;9.50;99.90
37050;DHT22;22958;51.232;6.826;2023-03-25T17:13:52;9.40;99.90
37050;DHT22;22958;51.232;6.826;2023-03-25T17:16:21;9.50;99.90
37050;DHT22;22958;51.232;6.826;2023-03-25T17:18:48;9.60;99.90
37050;DHT22;22958;51.232;6.826;2023-03-25T17:21:30;9.80;99.90
37050;DHT22;22958;51.232;6.826;2023-03-25T17:23:59;10.00;99.90
37050;DHT22;22958;51.232;6.826;2023-03-25T17:26:32;9.90;99.90
37050;DHT22;22958;51.232;6.826;2023-03-25T17:29:05;10.10;99.90
37050;DHT22;22958;51.232;6.826;2023-03-25T17:34:12;10.30;99.90
37050;DHT22;22958;51.232;6.826;2023-03-25T17:36:38;10.20;99.90
37050;DHT22;22958;51.232;6.826;2023-03-25T17:39:39;10.20;99.90
37050;DHT22;22958;51.232;6.826;2023-03-25T17:42:04;10.20;99.90
37050;DHT22;22958;51.232;6.826;2023-03-25T17:44:50;10.10;99.90
37050;DHT22;22958;51.232;6.826;2023-03-25T17:47:17;10.10;99.90
37050;DHT22;22958;51.232;6.826;2023-03-25T17:49:44;10.00;99.90
37050;DHT22;22958;51.232;6.826;2023-03-25T17:52:10;10.00;99.90
37050;DHT22;22958;51.232;6.826;2023-03-25T17:54:36;9.90;99.90
37050;DHT22;22958;51.232;6.826;2023-03-25T17:57:28;9.80;99.90
37050;DHT22;22958;51.232;6.826;2023-03-25T17:59:53;9.90;99.90
37050;DHT22;22958;51.232;6.826;2023-03-25T18:02:20;9.90;99.90
37050;DHT22;22958;51.232;6.826;2023-03-25T18:04:46;9.80;99.90
37050;DHT22;22958;51.232;6.826;2023-03-25T18:07:12;9.80;99.90
37050;DHT22;22958;51.232;6.826;2023-03-25T18:09:37;9.80;99.90
37050;DHT22;22958;51.232;6.826;2023-03-25T18:12:03;9.80;99.90